createdAt,value
2022-10-22T00:00:55.693Z,11.20
2022-10-22T00:03:22.439Z,11.20
2022-10-22T00:05:48.979Z,11.10
2022-10-22T00:08:15.720Z,11.10
2022-10-22T00:10:42.277Z,11.10
2022-10-22T00:13:10.596Z,11.10
2022-10-22T00:15:37.151Z,11.10
2022-10-22T00:18:03.874Z,11.10
2022-10-22T00:20:30.498Z,11.10
2022-10-22T00:22:57.157Z,11.10
2022-10-22T00:25:23.664Z,11.10
2022-10-22T00:27:50.271Z,11.10
2022-10-22T00:30:16.859Z,11.10
2022-10-22T00:32:43.500Z,11.10
2022-10-22T00:35:10.100Z,11.10
2022-10-22T00:37:36.872Z,11.10
2022-10-22T00:40:03.834Z,11.10
2022-10-22T00:42:30.488Z,11.10
2022-10-22T00:45:00.180Z,11.10
2022-10-22T00:47:28.149Z,11.20
2022-10-22T00:49:55.333Z,11.10
2022-10-22T00:52:22.544Z,11.20
2022-10-22T00:54:49.098Z,11.20
2022-10-22T00:57:16.211Z,11.20
2022-10-22T00:59:42.758Z,11.20
2022-10-22T01:02:09.303Z,11.20
2022-10-22T01:04:35.861Z,11.30
2022-10-22T01:07:02.627Z,11.30
2022-10-22T01:09:36.804Z,11.30
2022-10-22T01:12:10.182Z,11.30
2022-10-22T01:14:57.986Z,11.30
2022-10-22T01:17:43.245Z,11.30
2022-10-22T01:20:19.573Z,11.30
2022-10-22T01:22:55.021Z,11.30
2022-10-22T01:25:40.404Z,11.30
2022-10-22T01:28:14.079Z,11.40
2022-10-22T01:30:41.296Z,11.40
2022-10-22T01:33:10.518Z,11.40
2022-10-22T01:35:38.852Z,11.40
2022-10-22T01:38:07.498Z,11.40
2022-10-22T01:40:35.195Z,11.40
2022-10-22T01:43:02.804Z,11.40
2022-10-22T01:45:32.797Z,11.50
2022-10-22T01:48:02.426Z,11.50
2022-10-22T01:50:28.943Z,11.50
2022-10-22T01:53:07.446Z,11.50
2022-10-22T01:55:37.060Z,11.50
2022-10-22T01:58:22.485Z,11.50
2022-10-22T02:01:13.174Z,11.50
2022-10-22T02:03:48.021Z,11.50
2022-10-22T02:06:17.362Z,11.50
2022-10-22T02:08:44.762Z,11.50
2022-10-22T02:11:12.534Z,11.60
2022-10-22T02:13:44.443Z,11.60
2022-10-22T02:16:12.965Z,11.60
2022-10-22T02:18:41.330Z,11.60
2022-10-22T02:23:39.816Z,11.60
2022-10-22T02:26:16.610Z,11.60
2022-10-22T02:28:51.983Z,11.60
2022-10-22T02:31:23.205Z,11.70
2022-10-22T02:33:51.726Z,11.70
2022-10-22T02:36:19.097Z,11.70
2022-10-22T02:38:47.479Z,11.70
2022-10-22T02:41:15.054Z,11.60
2022-10-22T02:43:42.787Z,11.60
2022-10-22T02:46:09.924Z,11.70
2022-10-22T02:48:36.751Z,11.70
2022-10-22T02:51:03.459Z,11.70
2022-10-22T02:53:30.026Z,11.70
2022-10-22T02:55:56.597Z,11.70
2022-10-22T02:58:23.111Z,11.70
2022-10-22T03:00:49.811Z,11.70
2022-10-22T03:03:16.534Z,11.70
2022-10-22T03:05:43.071Z,11.90
2022-10-22T03:08:09.677Z,11.80
2022-10-22T03:10:36.336Z,11.80
2022-10-22T03:13:02.898Z,11.70
2022-10-22T03:15:29.422Z,11.80
2022-10-22T03:17:55.963Z,11.80
2022-10-22T03:20:22.519Z,11.80
2022-10-22T03:22:49.062Z,11.80
2022-10-22T03:25:18.879Z,11.80
2022-10-22T03:27:45.718Z,11.80
2022-10-22T03:30:12.396Z,11.80
2022-10-22T03:32:38.961Z,11.80
2022-10-22T03:35:05.848Z,11.80
2022-10-22T03:37:32.936Z,11.80
2022-10-22T03:39:59.620Z,11.80
2022-10-22T03:42:26.322Z,11.80
2022-10-22T03:44:53.147Z,11.80
2022-10-22T03:47:19.727Z,11.80
2022-10-22T03:49:46.319Z,11.70
2022-10-22T03:52:13.996Z,11.70
2022-10-22T03:54:40.710Z,11.70
2022-10-22T03:57:07.664Z,11.70
2022-10-22T03:59:44.066Z,11.70
2022-10-22T04:02:11.639Z,11.70
2022-10-22T04:04:38.272Z,11.70
2022-10-22T04:07:05.460Z,11.70
2022-10-22T04:09:32.744Z,11.70
2022-10-22T04:11:59.704Z,11.70
2022-10-22T04:14:26.267Z,11.70
2022-10-22T04:16:52.803Z,11.70
2022-10-22T04:19:19.374Z,11.70
2022-10-22T04:21:45.908Z,11.70
2022-10-22T04:24:12.429Z,11.70
2022-10-22T04:26:38.964Z,11.70
2022-10-22T04:29:06.349Z,11.80
2022-10-22T04:31:33.000Z,11.80
2022-10-22T04:34:00.517Z,11.80
2022-10-22T04:36:28.039Z,11.80
2022-10-22T04:38:55.611Z,11.80
2022-10-22T04:41:40.407Z,11.80
2022-10-22T04:44:10.952Z,11.80
2022-10-22T04:46:40.419Z,11.80
2022-10-22T04:49:06.954Z,11.80
2022-10-22T04:51:33.519Z,11.80
2022-10-22T04:54:00.101Z,11.80
2022-10-22T04:56:30.398Z,11.80
2022-10-22T04:58:58.148Z,11.80
2022-10-22T05:01:26.378Z,11.80
2022-10-22T05:03:53.980Z,11.80
2022-10-22T05:06:21.058Z,11.80
2022-10-22T05:08:48.176Z,11.80
2022-10-22T05:11:16.173Z,11.80
2022-10-22T05:13:42.898Z,11.80
2022-10-22T05:16:09.608Z,11.80
2022-10-22T05:18:40.397Z,11.80
2022-10-22T05:21:11.142Z,11.80
2022-10-22T05:23:37.715Z,11.90
2022-10-22T05:26:04.996Z,11.90
2022-10-22T05:28:31.915Z,11.90
2022-10-22T05:30:59.295Z,11.90
2022-10-22T05:33:26.438Z,11.90
2022-10-22T05:35:53.054Z,11.90
2022-10-22T05:38:19.611Z,11.90
2022-10-22T05:40:46.167Z,11.90
2022-10-22T05:43:12.775Z,12.00
2022-10-22T05:45:40.078Z,12.00
2022-10-22T05:48:07.846Z,12.10
2022-10-22T05:50:37.809Z,12.20
2022-10-22T05:53:05.332Z,12.40
2022-10-22T05:55:36.974Z,12.40
2022-10-22T05:58:04.022Z,12.70
2022-10-22T06:00:30.609Z,12.70
2022-10-22T06:02:57.108Z,12.80
2022-10-22T06:05:23.617Z,12.80
2022-10-22T06:07:50.168Z,12.80
2022-10-22T06:10:18.120Z,12.80
2022-10-22T06:12:44.655Z,12.80
2022-10-22T06:15:15.572Z,12.80
2022-10-22T06:17:43.749Z,12.80
2022-10-22T06:20:10.621Z,12.80
2022-10-22T06:22:37.184Z,12.90
2022-10-22T06:25:04.697Z,12.90
2022-10-22T06:27:31.292Z,13.00
2022-10-22T06:29:57.807Z,13.10
2022-10-22T06:32:24.332Z,13.20
2022-10-22T06:34:50.942Z,13.20
2022-10-22T06:37:17.488Z,13.10
2022-10-22T06:39:44.065Z,13.20
2022-10-22T06:42:10.624Z,13.10
2022-10-22T06:44:37.165Z,13.10
2022-10-22T06:47:04.295Z,13.10
2022-10-22T06:49:30.798Z,13.10
2022-10-22T06:51:57.305Z,13.10
2022-10-22T06:54:23.981Z,13.10
2022-10-22T06:56:50.489Z,13.00
2022-10-22T06:59:17.006Z,13.00
2022-10-22T07:01:43.770Z,13.00
2022-10-22T07:04:10.624Z,12.90
2022-10-22T07:06:37.174Z,12.90
2022-10-22T07:09:04.170Z,12.90
2022-10-22T07:11:32.596Z,12.80
2022-10-22T07:13:59.793Z,12.80
2022-10-22T07:16:29.677Z,12.80
2022-10-22T07:18:57.740Z,12.80
2022-10-22T07:21:26.020Z,12.80
2022-10-22T07:23:52.773Z,12.90
2022-10-22T07:26:20.393Z,12.80
2022-10-22T07:28:47.468Z,12.80
2022-10-22T07:31:14.689Z,12.70
2022-10-22T07:33:41.232Z,12.70
2022-10-22T07:36:09.153Z,12.70
2022-10-22T07:38:36.194Z,12.70
2022-10-22T07:41:03.141Z,12.60
2022-10-22T07:43:29.713Z,12.70
2022-10-22T07:45:56.299Z,12.70
2022-10-22T07:48:23.120Z,12.70
2022-10-22T07:50:50.810Z,12.70
2022-10-22T07:53:17.375Z,12.70
2022-10-22T07:55:43.978Z,12.60
2022-10-22T07:58:10.495Z,12.60
2022-10-22T08:00:37.799Z,12.60
2022-10-22T08:03:04.375Z,12.60
2022-10-22T08:05:30.875Z,12.60
2022-10-22T08:07:57.457Z,12.60
2022-10-22T08:10:24.005Z,12.60
2022-10-22T08:12:50.522Z,12.60
2022-10-22T08:15:17.149Z,12.60
2022-10-22T08:17:44.110Z,12.50
2022-10-22T08:20:11.094Z,12.50
2022-10-22T08:22:37.668Z,12.50
2022-10-22T08:25:04.549Z,12.60
2022-10-22T08:27:31.126Z,12.60
2022-10-22T08:29:57.673Z,12.60
2022-10-22T08:32:24.297Z,12.70
2022-10-22T08:34:50.981Z,12.70
2022-10-22T08:37:17.772Z,12.70
2022-10-22T08:39:44.720Z,12.80
2022-10-22T08:42:35.096Z,12.90
2022-10-22T08:45:07.243Z,12.90
2022-10-22T08:47:42.927Z,12.90
2022-10-22T08:50:12.018Z,12.90
2022-10-22T08:52:41.071Z,13.00
2022-10-22T08:55:12.437Z,13.10
2022-10-22T08:57:57.519Z,13.10
2022-10-22T09:00:36.585Z,13.10
2022-10-22T09:03:10.102Z,13.10
2022-10-22T09:05:43.856Z,13.10
2022-10-22T09:08:11.267Z,13.20
2022-10-22T09:10:40.878Z,13.30
2022-10-22T09:13:09.190Z,13.30
2022-10-22T09:15:35.713Z,13.30
2022-10-22T09:18:06.372Z,13.30
2022-10-22T09:20:44.381Z,13.30
2022-10-22T09:23:26.280Z,13.30
2022-10-22T09:25:53.067Z,13.40
2022-10-22T09:28:19.584Z,13.40
2022-10-22T09:30:46.311Z,13.40
2022-10-22T09:33:14.993Z,13.40
2022-10-22T09:35:46.104Z,13.50
2022-10-22T09:38:13.740Z,13.50
2022-10-22T09:40:45.396Z,13.50
2022-10-22T09:43:15.355Z,13.60
2022-10-22T09:45:42.669Z,13.70
2022-10-22T09:48:09.221Z,13.80
2022-10-22T09:50:40.953Z,13.80
2022-10-22T09:53:18.332Z,13.90
2022-10-22T09:55:49.853Z,14.00
2022-10-22T09:58:17.382Z,14.00
2022-10-22T10:00:46.172Z,14.10
2022-10-22T10:03:16.725Z,14.10
2022-10-22T10:05:46.463Z,14.20
2022-10-22T10:08:14.101Z,14.30
2022-10-22T10:10:40.645Z,14.30
2022-10-22T10:13:26.166Z,14.40
2022-10-22T10:16:07.279Z,14.50
2022-10-22T10:18:41.331Z,14.60
2022-10-22T10:21:29.355Z,14.70
2022-10-22T10:24:14.719Z,14.70
2022-10-22T10:26:54.873Z,14.60
2022-10-22T10:29:33.949Z,14.60
2022-10-22T10:32:07.979Z,14.60
2022-10-22T10:34:42.590Z,14.60
2022-10-22T10:37:19.041Z,14.60
2022-10-22T10:40:00.587Z,14.50
2022-10-22T10:42:30.497Z,14.50
2022-10-22T10:45:11.788Z,14.50
2022-10-22T10:47:50.489Z,14.50
2022-10-22T10:50:29.340Z,14.60
2022-10-22T10:52:56.307Z,14.40
2022-10-22T10:55:29.753Z,14.30
2022-10-22T10:58:15.192Z,14.40
2022-10-22T11:00:50.452Z,14.40
2022-10-22T11:03:35.571Z,14.30
2022-10-22T11:06:04.033Z,14.30
2022-10-22T11:08:32.822Z,14.40
2022-10-22T11:11:01.686Z,14.50
2022-10-22T11:13:30.783Z,14.50
2022-10-22T11:16:21.725Z,14.40
2022-10-22T11:18:51.985Z,14.50
2022-10-22T11:21:26.981Z,14.50
2022-10-22T11:23:56.727Z,14.60
2022-10-22T11:26:29.059Z,14.70
2022-10-22T11:28:59.001Z,14.70
2022-10-22T11:31:26.031Z,14.70
2022-10-22T11:34:09.920Z,14.80
2022-10-22T11:36:42.663Z,14.80
2022-10-22T11:39:28.057Z,14.90
2022-10-22T11:41:55.034Z,14.90
2022-10-22T11:44:23.543Z,14.80
2022-10-22T11:46:53.187Z,14.90
2022-10-22T11:49:23.482Z,14.90
2022-10-22T11:51:50.831Z,14.90
2022-10-22T11:54:26.423Z,14.90
2022-10-22T11:56:57.617Z,15.00
2022-10-22T11:59:47.364Z,15.10
2022-10-22T12:02:49.392Z,15.10
2022-10-22T12:05:18.912Z,15.10
2022-10-22T12:07:52.887Z,15.00
2022-10-22T12:10:20.748Z,15.10
2022-10-22T12:13:11.549Z,15.10
2022-10-22T12:15:46.914Z,15.10
2022-10-22T12:20:49.751Z,15.30
2022-10-22T12:23:16.355Z,15.40
2022-10-22T12:25:42.857Z,15.40
2022-10-22T12:28:12.066Z,15.40
2022-10-22T12:30:38.629Z,15.40
2022-10-22T12:33:06.720Z,15.40
2022-10-22T12:35:35.595Z,15.50
2022-10-22T12:38:05.046Z,15.50
2022-10-22T12:40:33.768Z,15.60
2022-10-22T12:43:02.140Z,15.60
2022-10-22T12:45:29.779Z,15.60
2022-10-22T12:47:57.775Z,15.60
2022-10-22T12:50:37.559Z,15.60
2022-10-22T12:53:12.621Z,15.60
2022-10-22T12:55:39.284Z,15.50
2022-10-22T12:58:06.746Z,15.60
2022-10-22T13:00:35.143Z,15.70
2022-10-22T13:03:04.500Z,15.70
2022-10-22T13:05:34.081Z,15.80
2022-10-22T13:08:05.496Z,15.80
2022-10-22T13:10:37.234Z,15.80
2022-10-22T13:13:06.294Z,15.80
2022-10-22T13:15:35.780Z,15.80
2022-10-22T13:18:03.800Z,15.80
2022-10-22T13:20:30.440Z,15.90
2022-10-22T13:23:04.357Z,16.00
2022-10-22T13:25:34.829Z,15.90
2022-10-22T13:28:02.821Z,15.90
2022-10-22T13:30:30.889Z,15.90
2022-10-22T13:32:59.060Z,15.90
2022-10-22T13:35:27.281Z,15.90
2022-10-22T13:37:54.084Z,16.10
2022-10-22T13:40:20.799Z,16.20
2022-10-22T13:42:47.381Z,16.20
2022-10-22T13:45:14.041Z,16.20
2022-10-22T13:47:40.650Z,16.20
2022-10-22T13:50:13.031Z,16.20
2022-10-22T13:52:47.325Z,16.10
2022-10-22T13:55:15.862Z,16.00
2022-10-22T13:57:42.435Z,16.00
2022-10-22T14:00:11.600Z,16.00
2022-10-22T14:02:38.311Z,15.90
2022-10-22T14:05:08.612Z,15.80
2022-10-22T14:07:35.835Z,15.70
2022-10-22T14:10:03.051Z,15.70
2022-10-22T14:12:29.741Z,15.60
2022-10-22T14:17:23.785Z,15.60
2022-10-22T14:19:50.337Z,15.60
2022-10-22T14:22:18.444Z,15.50
2022-10-22T14:24:45.239Z,15.50
2022-10-22T14:27:15.437Z,15.50
2022-10-22T14:29:42.044Z,15.40
2022-10-22T14:32:16.251Z,15.40
2022-10-22T14:34:42.916Z,15.40
2022-10-22T14:37:19.534Z,15.40
2022-10-22T14:39:47.025Z,15.30
2022-10-22T14:42:14.466Z,15.20
2022-10-22T14:44:41.033Z,15.10
2022-10-22T14:47:07.683Z,15.10
2022-10-22T14:49:34.329Z,15.00
2022-10-22T14:52:00.880Z,15.00
2022-10-22T14:54:27.451Z,15.00
2022-10-22T14:56:53.990Z,15.10
2022-10-22T14:59:20.550Z,15.20
2022-10-22T15:01:47.113Z,15.30
2022-10-22T15:04:13.657Z,15.30
2022-10-22T15:06:40.177Z,15.20
2022-10-22T15:09:06.753Z,15.20
2022-10-22T15:11:33.368Z,15.10
2022-10-22T15:13:59.885Z,15.10
2022-10-22T15:16:26.381Z,15.10
2022-10-22T15:18:53.397Z,15.10
2022-10-22T15:21:20.924Z,15.10
2022-10-22T15:23:47.952Z,15.00
2022-10-22T15:26:14.795Z,15.00
2022-10-22T15:28:42.013Z,14.90
2022-10-22T15:31:08.647Z,14.80
2022-10-22T15:33:35.201Z,14.80
2022-10-22T15:36:15.589Z,14.70
2022-10-22T15:38:42.109Z,14.60
2022-10-22T15:41:10.074Z,14.60
2022-10-22T15:43:36.736Z,14.50
2022-10-22T15:46:14.085Z,14.40
2022-10-22T15:48:41.164Z,14.40
2022-10-22T15:51:09.127Z,14.30
2022-10-22T15:53:36.094Z,14.30
2022-10-22T15:56:02.735Z,14.20
2022-10-22T15:58:29.369Z,14.10
2022-10-22T16:00:55.919Z,14.10
2022-10-22T16:03:22.626Z,14.00
2022-10-22T16:05:54.436Z,13.90
2022-10-22T16:08:21.030Z,13.80
2022-10-22T16:10:48.489Z,13.70
2022-10-22T16:13:15.347Z,13.70
2022-10-22T16:15:42.101Z,13.60
2022-10-22T16:18:08.612Z,13.50
2022-10-22T16:20:41.496Z,13.40
2022-10-22T16:23:08.024Z,13.40
2022-10-22T16:25:41.155Z,13.30
2022-10-22T16:28:08.254Z,13.30
2022-10-22T16:30:35.527Z,13.30
2022-10-22T16:33:03.511Z,13.20
2022-10-22T16:35:30.586Z,13.20
2022-10-22T16:37:57.216Z,13.10
2022-10-22T16:40:23.734Z,13.10
2022-10-22T16:42:50.257Z,13.00
2022-10-22T16:45:17.905Z,12.90
2022-10-22T16:47:46.866Z,12.90
2022-10-22T16:50:13.575Z,12.80
2022-10-22T16:52:40.098Z,12.80
2022-10-22T16:55:06.837Z,12.70
2022-10-22T16:57:34.013Z,12.80
2022-10-22T17:00:00.533Z,12.70
2022-10-22T17:02:27.058Z,12.60
2022-10-22T17:04:53.626Z,12.60
2022-10-22T17:07:20.187Z,12.50
2022-10-22T17:09:46.729Z,12.50
2022-10-22T17:12:13.239Z,12.40
2022-10-22T17:14:39.744Z,12.40
2022-10-22T17:17:06.371Z,12.30
2022-10-22T17:19:34.148Z,12.20
2022-10-22T17:22:00.719Z,12.20
2022-10-22T17:24:27.240Z,12.20
2022-10-22T17:26:53.834Z,12.20
2022-10-22T17:29:21.907Z,12.20
2022-10-22T17:31:48.640Z,12.20
2022-10-22T17:34:16.216Z,12.20
2022-10-22T17:36:42.995Z,12.20
2022-10-22T17:39:13.241Z,12.30
2022-10-22T17:41:39.747Z,12.30
2022-10-22T17:44:08.795Z,12.40
2022-10-22T17:46:35.409Z,12.40
2022-10-22T17:49:03.802Z,12.30
2022-10-22T17:51:30.947Z,12.40
2022-10-22T17:53:57.508Z,12.40
2022-10-22T17:56:25.346Z,12.40
2022-10-22T17:58:52.213Z,12.40
2022-10-22T18:01:22.103Z,12.40
2022-10-22T18:03:48.844Z,12.40
2022-10-22T18:06:15.682Z,12.50
2022-10-22T18:08:42.377Z,12.50
2022-10-22T18:11:09.795Z,12.60
2022-10-22T18:13:36.361Z,12.50
2022-10-22T18:16:02.890Z,12.50
2022-10-22T18:18:29.485Z,12.50
2022-10-22T18:20:56.158Z,12.50
2022-10-22T18:23:22.659Z,12.50
2022-10-22T18:25:49.257Z,12.50
2022-10-22T18:28:16.912Z,12.50
2022-10-22T18:30:44.145Z,12.50
2022-10-22T18:33:11.727Z,12.50
2022-10-22T18:35:38.322Z,12.50
2022-10-22T18:38:09.352Z,12.50
2022-10-22T18:40:36.072Z,12.50
2022-10-22T18:43:03.484Z,12.50
2022-10-22T18:45:30.033Z,12.50
2022-10-22T18:47:56.551Z,12.60
2022-10-22T18:50:23.170Z,12.50
2022-10-22T18:52:49.713Z,12.50
2022-10-22T18:55:16.373Z,12.50
2022-10-22T18:57:42.925Z,12.50
2022-10-22T19:00:09.713Z,12.60
2022-10-22T19:02:37.421Z,12.60
2022-10-22T19:05:04.173Z,12.50
2022-10-22T19:07:31.695Z,12.50
2022-10-22T19:09:58.446Z,12.50
2022-10-22T19:12:24.999Z,12.60
2022-10-22T19:14:51.774Z,12.60
2022-10-22T19:17:18.683Z,12.60
2022-10-22T19:19:45.234Z,12.60
2022-10-22T19:22:11.978Z,12.60
2022-10-22T19:24:38.526Z,12.60
2022-10-22T19:27:05.062Z,12.60
2022-10-22T19:29:31.595Z,12.60
2022-10-22T19:31:58.262Z,12.60
2022-10-22T19:34:24.857Z,12.60
2022-10-22T19:36:51.756Z,12.60
2022-10-22T19:39:18.433Z,12.60
2022-10-22T19:41:44.991Z,12.60
2022-10-22T19:44:11.532Z,12.60
2022-10-22T19:46:38.160Z,12.60
2022-10-22T19:49:05.185Z,12.50
2022-10-22T19:51:33.400Z,12.50
2022-10-22T19:54:01.649Z,12.40
2022-10-22T19:56:28.740Z,12.30
2022-10-22T19:58:55.412Z,12.30
2022-10-22T20:01:22.053Z,12.20
2022-10-22T20:03:48.784Z,12.20
2022-10-22T20:06:16.001Z,12.20
2022-10-22T20:08:42.865Z,12.10
2022-10-22T20:11:11.419Z,12.00
2022-10-22T20:16:09.794Z,12.00
2022-10-22T20:18:36.339Z,12.00
2022-10-22T20:21:03.670Z,12.00
2022-10-22T20:23:30.228Z,12.00
2022-10-22T20:25:56.771Z,12.00
2022-10-22T20:28:23.353Z,11.90
2022-10-22T20:30:49.931Z,11.90
2022-10-22T20:33:16.511Z,11.80
2022-10-22T20:35:43.134Z,11.80
2022-10-22T20:38:12.545Z,11.70
2022-10-22T20:40:39.081Z,11.70
2022-10-22T20:43:06.986Z,11.70
2022-10-22T20:45:35.569Z,11.60
2022-10-22T20:48:02.907Z,11.60
2022-10-22T20:50:31.339Z,11.60
2022-10-22T20:52:58.128Z,11.50
2022-10-22T20:55:24.857Z,11.50
2022-10-22T20:57:51.429Z,11.50
2022-10-22T21:00:18.022Z,11.40
2022-10-22T21:02:44.690Z,11.40
2022-10-22T21:05:11.294Z,11.30
2022-10-22T21:07:37.866Z,11.30
2022-10-22T21:10:04.619Z,11.30
2022-10-22T21:12:31.124Z,11.20
2022-10-22T21:14:57.664Z,11.20
2022-10-22T21:17:24.186Z,11.10
2022-10-22T21:19:50.679Z,11.10
2022-10-22T21:22:17.280Z,11.10
2022-10-22T21:24:43.788Z,11.10
2022-10-22T21:27:10.413Z,11.10
2022-10-22T21:29:36.909Z,11.00
2022-10-22T21:32:03.521Z,11.00
2022-10-22T21:34:30.187Z,11.00
2022-10-22T21:36:57.770Z,10.90
2022-10-22T21:39:24.285Z,10.90
2022-10-22T21:41:50.796Z,10.90
2022-10-22T21:44:17.441Z,10.80
2022-10-22T21:46:44.002Z,10.80
2022-10-22T21:49:10.855Z,10.80
2022-10-22T21:51:38.252Z,10.80
2022-10-22T21:54:04.987Z,10.80
2022-10-22T21:56:32.832Z,10.70
2022-10-22T21:58:59.805Z,10.70
2022-10-22T22:01:26.479Z,10.70
2022-10-22T22:03:53.105Z,10.70
2022-10-22T22:06:21.663Z,10.70
2022-10-22T22:08:49.088Z,10.80
2022-10-22T22:11:17.362Z,10.80
2022-10-22T22:13:45.130Z,10.80
2022-10-22T22:16:16.151Z,10.80
2022-10-22T22:18:42.689Z,10.80
2022-10-22T22:21:10.875Z,10.80
2022-10-22T22:23:38.199Z,10.80
2022-10-22T22:26:05.248Z,10.90
2022-10-22T22:28:32.323Z,10.90
2022-10-22T22:30:59.145Z,10.90
2022-10-22T22:33:26.126Z,10.90
2022-10-22T22:35:52.825Z,10.90
2022-10-22T22:38:19.349Z,10.90
2022-10-22T22:40:45.903Z,10.90
2022-10-22T22:43:12.431Z,10.90
2022-10-22T22:45:40.678Z,10.90
2022-10-22T22:48:07.933Z,10.90
2022-10-22T22:50:35.824Z,11.00
2022-10-22T22:53:02.462Z,10.90
2022-10-22T22:55:31.847Z,11.00
2022-10-22T22:57:58.663Z,11.00
2022-10-22T23:00:25.173Z,11.00
2022-10-22T23:02:55.775Z,11.00
2022-10-22T23:05:22.376Z,11.00
2022-10-22T23:07:48.936Z,11.00
2022-10-22T23:10:15.597Z,11.00
2022-10-22T23:12:42.372Z,11.00
2022-10-22T23:15:09.299Z,11.00
2022-10-22T23:20:02.625Z,11.10
2022-10-22T23:22:29.146Z,11.00
2022-10-22T23:24:55.659Z,11.10
2022-10-22T23:27:22.181Z,11.10
2022-10-22T23:29:48.733Z,11.10
2022-10-22T23:32:15.335Z,11.10
2022-10-22T23:34:41.956Z,11.10
2022-10-22T23:37:09.907Z,11.10
2022-10-22T23:39:36.442Z,11.00
2022-10-22T23:42:03.005Z,11.00
2022-10-22T23:44:29.545Z,11.00
2022-10-22T23:46:56.196Z,11.00
2022-10-22T23:49:22.723Z,11.00
2022-10-22T23:51:49.250Z,11.00
2022-10-22T23:54:17.696Z,11.00
2022-10-22T23:56:44.353Z,10.90
2022-10-22T23:59:10.938Z,10.90
